Time;durP1;ratioP1;P1;durP2;ratioP2;P2;SDS_P1;SDS_P2;PMS_P1;PMS_P2;Temp;Humidity;BMP_temperature;BMP_pressure;BME280_temperature;BME280_humidity;BME280_pressure;Samples;Min_cycle;Max_cycle;Signal;HPM_P1;HPM_P2
2023/10/23 00:02:08;;;;;;;1.20;0.87;;;10.90;99.90;10.70;100301.00;;;;4891728;28;109053;-67
2023/10/23 00:04:34;;;;;;;4.23;1.23;;;10.80;99.90;10.80;100316.00;;;;4890625;28;87797;-67
2023/10/23 00:07:00;;;;;;;1.00;1.00;;;10.80;99.90;10.80;100313.00;;;;4891257;28;87853;-67
2023/10/23 00:09:26;;;;;;;1.50;0.97;;;10.80;99.90;10.80;100314.00;;;;4888709;28;110776;-67
2023/10/23 00:11:51;;;;;;;1.50;1.20;;;10.80;99.90;10.80;100308.00;;;;4893882;28;109304;-67
2023/10/23 00:14:17;;;;;;;0.80;0.80;;;10.80;99.90;10.80;100306.00;;;;4892079;28;118866;-69
2023/10/23 00:16:43;;;;;;;1.27;1.13;;;10.80;99.90;10.80;100319.00;;;;4892415;28;117680;-66
2023/10/23 00:19:08;;;;;;;2.80;1.60;;;10.90;99.90;10.90;100316.00;;;;4893662;28;110756;-66
2023/10/23 00:21:34;;;;;;;2.47;1.00;;;10.90;99.90;10.90;100319.00;;;;4895689;28;107380;-67
2023/10/23 00:24:02;;;;;;;1.60;0.87;;;11.00;99.90;11.00;100308.00;;;;4892495;28;117526;-67
2023/10/23 00:26:28;;;;;;;1.00;0.83;;;11.00;99.90;11.00;100320.00;;;;4890666;28;89083;-69
2023/10/23 00:28:54;;;;;;;4.53;1.10;;;11.10;99.90;11.10;100317.00;;;;4894150;28;94849;-66
2023/10/23 00:31:19;;;;;;;0.87;0.87;;;11.10;99.90;11.10;100320.00;;;;4894946;28;86918;-66
2023/10/23 00:33:45;;;;;;;1.53;1.20;;;11.10;99.90;11.10;100320.00;;;;4879283;28;116630;-66
2023/10/23 00:36:11;;;;;;;1.33;0.83;;;11.20;99.90;11.20;100318.00;;;;4890994;28;109659;-67
2023/10/23 00:38:36;;;;;;;1.83;1.50;;;11.20;99.90;11.20;100314.00;;;;4893900;28;97005;-67
2023/10/23 00:41:02;;;;;;;1.03;0.83;;;11.20;99.90;11.30;100324.00;;;;4888600;28;108831;-68
2023/10/23 00:43:28;;;;;;;2.17;1.07;;;11.30;99.90;11.30;100323.00;;;;4872223;28;116217;-66
2023/10/23 00:45:59;;;;;;;1.57;1.00;;;11.30;99.90;11.30;100326.00;;;;4887870;28;117961;-66
2023/10/23 00:48:27;;;;;;;2.53;1.57;;;11.40;99.90;11.30;100314.00;;;;4874991;28;87880;-67
2023/10/23 00:50:58;;;;;;;1.27;0.87;;;11.40;99.90;11.40;100313.00;;;;4895685;28;88016;-68
2023/10/23 00:53:28;;;;;;;0.70;0.70;;;11.40;99.90;11.40;100311.00;;;;4891298;28;88259;-68
2023/10/23 00:55:56;;;;;;;1.57;1.20;;;11.40;99.90;11.40;100316.00;;;;4875073;28;88129;-68
2023/10/23 00:58:26;;;;;;;1.73;0.80;;;11.40;99.90;11.40;100315.00;;;;4891166;28;87948;-68
2023/10/23 01:00:55;;;;;;;0.70;0.70;;;11.40;99.90;11.30;100320.00;;;;4893615;28;88019;-67
2023/10/23 01:03:20;;;;;;;2.20;0.80;;;11.40;99.90;11.30;100313.00;;;;4875956;28;90025;-68
2023/10/23 01:05:46;;;;;;;3.20;1.07;;;11.30;99.90;11.30;100322.00;;;;4890527;28;89165;-68
2023/10/23 01:08:12;;;;;;;2.40;1.33;;;11.30;99.90;11.20;100318.00;;;;4892622;28;110474;-68
2023/10/23 01:10:37;;;;;;;0.90;0.63;;;11.30;99.90;11.20;100316.00;;;;4890338;28;109590;-66
2023/10/23 01:13:10;;;;;;;1.10;0.90;;;11.30;99.90;11.20;100324.00;;;;4891343;28;118473;-66
2023/10/23 01:15:36;;;;;;;1.47;1.37;;;11.30;99.90;11.30;100320.00;;;;4878658;28;117300;-67
2023/10/23 01:18:03;;;;;;;1.60;1.33;;;11.30;99.90;11.30;100324.00;;;;4856124;28;90534;-68
2023/10/23 01:20:29;;;;;;;0.73;0.73;;;11.30;99.90;11.30;100316.00;;;;4891198;28;87327;-67
2023/10/23 01:23:02;;;;;;;2.70;1.47;;;11.30;99.90;11.30;100314.00;;;;4891128;28;90124;-67
2023/10/23 01:25:28;;;;;;;1.13;0.60;;;11.40;99.90;11.40;100311.00;;;;4870848;28;87996;-67
2023/10/23 01:27:55;;;;;;;1.27;1.10;;;11.40;99.90;11.40;100318.00;;;;4888891;28;111013;-67
2023/10/23 01:30:20;;;;;;;2.17;1.10;;;11.40;99.90;11.40;100315.00;;;;4891502;28;88110;-67
2023/10/23 01:32:47;;;;;;;2.73;0.93;;;11.40;99.90;11.40;100312.00;;;;4867306;28;96989;-67
2023/10/23 01:35:13;;;;;;;0.80;0.77;;;11.50;99.90;11.40;100321.00;;;;4888133;28;89019;-68
2023/10/23 01:37:41;;;;;;;2.23;0.83;;;11.50;99.90;11.50;100313.00;;;;4877990;28;101232;-66
2023/10/23 01:40:08;;;;;;;1.60;1.33;;;11.50;99.90;11.50;100311.00;;;;4893915;28;87769;-66
2023/10/23 01:42:34;;;;;;;5.00;1.23;;;11.50;99.90;11.50;100311.00;;;;4888159;28;88749;-66
2023/10/23 01:45:00;;;;;;;9.03;0.90;;;11.50;99.90;11.50;100308.00;;;;4888297;28;105013;-67
2023/10/23 01:47:27;;;;;;;1.43;0.87;;;11.50;99.90;11.50;100313.00;;;;4894868;28;110633;-67
2023/10/23 01:49:53;;;;;;;2.80;1.57;;;11.50;99.90;11.50;100319.00;;;;4893561;28;107988;-67
2023/10/23 01:52:19;;;;;;;2.83;1.13;;;11.50;99.90;11.50;100330.00;;;;4888653;28;89047;-67
2023/10/23 01:54:45;;;;;;;3.50;1.17;;;11.50;99.90;11.50;100326.00;;;;4885634;28;117482;-67
2023/10/23 01:57:12;;;;;;;2.27;1.13;;;11.60;99.90;11.50;100331.00;;;;4887070;28;100478;-68
2023/10/23 01:59:38;;;;;;;2.37;1.40;;;11.60;99.90;11.60;100321.00;;;;4888962;28;88146;-67
2023/10/23 02:02:19;;;;;;;1.57;1.07;;;11.60;99.90;11.50;100319.00;;;;4891057;28;88488;-67
2023/10/23 02:04:46;;;;;;;0.87;0.73;;;11.60;99.90;11.50;100332.00;;;;4875168;28;116435;-67
2023/10/23 02:07:12;;;;;;;1.87;0.90;;;11.60;99.90;11.50;100319.00;;;;4890365;28;110222;-67
2023/10/23 02:09:38;;;;;;;1.97;1.33;;;11.60;99.90;11.50;100322.00;;;;4891434;28;87166;-67
2023/10/23 02:12:05;;;;;;;7.27;1.63;;;11.60;99.90;11.50;100333.00;;;;4887332;28;118703;-69
2023/10/23 02:14:30;;;;;;;4.13;0.90;;;11.60;99.90;11.50;100335.00;;;;4892275;28;88213;-68
2023/10/23 02:16:56;;;;;;;1.17;1.00;;;11.60;99.90;11.50;100335.00;;;;4892451;28;111184;-68
2023/10/23 02:19:22;;;;;;;1.67;0.93;;;11.60;99.90;11.50;100334.00;;;;4891899;28;109468;-68
2023/10/23 02:21:50;;;;;;;2.47;1.23;;;11.60;99.90;11.50;100346.00;;;;4887734;28;116630;-68
2023/10/23 02:24:17;;;;;;;1.30;1.00;;;11.60;99.90;11.50;100345.00;;;;4894739;28;88083;-68
2023/10/23 02:26:43;;;;;;;2.37;1.40;;;11.60;99.90;11.60;100343.00;;;;4892472;28;87961;-68
2023/10/23 02:29:09;;;;;;;0.67;0.50;;;11.60;99.90;11.60;100342.00;;;;4890626;28;93536;-68
2023/10/23 02:31:36;;;;;;;0.77;0.70;;;11.60;99.90;11.60;100338.00;;;;4895450;28;115330;-67
2023/10/23 02:34:02;;;;;;;1.17;0.77;;;11.60;99.90;11.60;100338.00;;;;4892822;28;87772;-68
2023/10/23 02:36:34;;;;;;;3.70;1.27;;;11.60;99.90;11.60;100336.00;;;;4893867;28;96552;-68
2023/10/23 02:39:00;;;;;;;1.10;1.00;;;11.60;99.90;11.60;100342.00;;;;4891809;28;87878;-68
2023/10/23 02:41:29;;;;;;;4.63;1.07;;;11.60;99.90;11.60;100342.00;;;;4893599;28;120213;-68
2023/10/23 02:43:55;;;;;;;1.73;1.10;;;11.60;99.90;11.60;100345.00;;;;4892373;28;89907;-68
2023/10/23 02:46:21;;;;;;;1.97;1.17;;;11.60;99.90;11.60;100350.00;;;;4892813;28;87892;-69
2023/10/23 02:48:46;;;;;;;1.17;1.07;;;11.60;99.90;11.50;100355.00;;;;4894195;28;106296;-68
2023/10/23 02:51:12;;;;;;;5.33;1.60;;;11.60;99.90;11.50;100363.00;;;;4874603;28;116175;-68
2023/10/23 02:53:38;;;;;;;1.87;0.70;;;11.60;99.90;11.50;100366.00;;;;4892842;28;88465;-68
2023/10/23 02:56:10;;;;;;;0.43;0.43;;;11.60;99.90;11.50;100367.00;;;;4892320;28;110974;-68
2023/10/23 02:58:36;;;;;;;0.70;0.70;;;11.60;99.90;11.50;100371.00;;;;4890093;28;88605;-68
2023/10/23 03:01:01;;;;;;;2.73;1.00;;;11.50;99.90;11.50;100376.00;;;;4891793;28;103380;-68
2023/10/23 03:03:27;;;;;;;1.47;1.10;;;11.90;99.90;11.50;100380.00;;;;4875367;28;87926;-68
2023/10/23 03:05:53;;;;;;;2.47;1.57;;;11.50;99.90;11.50;100375.00;;;;4894743;28;110600;-68
2023/10/23 03:08:18;;;;;;;2.00;1.13;;;11.60;99.90;11.60;100383.00;;;;4890898;28;109114;-67
2023/10/23 03:10:44;;;;;;;3.20;1.03;;;11.60;99.90;11.60;100387.00;;;;4893269;28;117324;-67
2023/10/23 03:13:10;;;;;;;3.93;0.97;;;11.60;99.90;11.60;100375.00;;;;4896058;28;88148;-67
2023/10/23 03:15:37;;;;;;;1.57;0.87;;;11.60;99.90;11.60;100385.00;;;;4891552;28;110360;-67
2023/10/23 03:18:04;;;;;;;2.57;1.00;;;11.70;99.90;11.60;100380.00;;;;4896432;28;88808;-68
2023/10/23 03:20:32;;;;;;;3.53;1.33;;;11.70;99.90;11.70;100389.00;;;;4893569;28;87980;-68
2023/10/23 03:22:58;;;;;;;0.60;0.60;;;11.70;99.90;11.70;100383.00;;;;4890332;28;88990;-67
2023/10/23 03:25:24;;;;;;;2.10;1.03;;;11.70;99.90;11.70;100388.00;;;;4862491;28;88097;-67
2023/10/23 03:27:50;;;;;;;2.57;1.10;;;11.70;99.90;11.70;100388.00;;;;4891249;28;88257;-67
2023/10/23 03:30:16;;;;;;;2.57;1.13;;;11.70;99.90;11.70;100377.00;;;;4893008;28;88811;-67
2023/10/23 03:32:41;;;;;;;1.17;1.07;;;11.70;99.90;11.70;100386.00;;;;4891254;28;89352;-67
2023/10/23 03:35:07;;;;;;;1.73;0.87;;;11.70;99.90;11.70;100392.00;;;;4892472;28;111121;-68
2023/10/23 03:37:33;;;;;;;7.47;1.13;;;11.80;99.90;11.70;100402.00;;;;4892309;28;99384;-68
2023/10/23 03:39:59;;;;;;;0.80;0.80;;;11.80;99.90;11.70;100391.00;;;;4892159;28;116397;-67
2023/10/23 03:42:24;;;;;;;4.13;1.23;;;11.80;99.90;11.70;100391.00;;;;4890068;28;117897;-68
2023/10/23 03:44:50;;;;;;;4.90;1.23;;;11.70;99.90;11.70;100390.00;;;;4873479;28;87950;-67
2023/10/23 03:47:16;;;;;;;2.40;1.10;;;11.70;99.90;11.70;100400.00;;;;4894443;28;87068;-67
2023/10/23 03:49:41;;;;;;;1.50;1.10;;;11.70;99.90;11.70;100389.00;;;;4892124;28;117755;-68
2023/10/23 03:52:07;;;;;;;0.90;0.70;;;11.70;99.90;11.70;100394.00;;;;4890318;28;116847;-67
2023/10/23 03:54:33;;;;;;;5.40;1.20;;;11.70;99.90;11.70;100394.00;;;;4894090;28;91992;-67
2023/10/23 03:56:58;;;;;;;0.93;0.60;;;11.80;99.90;11.70;100399.00;;;;4895363;28;108418;-67
2023/10/23 03:59:24;;;;;;;1.97;1.27;;;11.80;99.90;11.80;100404.00;;;;4893552;28;118001;-67
2023/10/23 04:01:51;;;;;;;1.10;1.00;;;11.80;99.90;11.80;100402.00;;;;4892764;28;116554;-67
2023/10/23 04:04:16;;;;;;;0.63;0.63;;;11.80;99.90;11.80;100401.00;;;;4891650;28;88141;-67
2023/10/23 04:06:42;;;;;;;1.80;1.00;;;11.80;99.90;11.80;100403.00;;;;4876061;28;108533;-67
2023/10/23 04:09:08;;;;;;;2.00;1.27;;;11.80;99.90;11.80;100407.00;;;;4893088;28;88166;-67
2023/10/23 04:11:33;;;;;;;1.83;0.53;;;11.90;99.90;11.80;100408.00;;;;4890351;28;118438;-67
2023/10/23 04:13:59;;;;;;;1.37;0.90;;;11.90;99.90;11.90;100410.00;;;;4892234;28;87786;-67
2023/10/23 04:16:25;;;;;;;1.97;1.23;;;11.90;99.90;11.90;100405.00;;;;4886472;28;109613;-67
2023/10/23 04:18:50;;;;;;;3.23;1.07;;;11.90;99.90;11.90;100407.00;;;;4887544;28;118875;-67
2023/10/23 04:21:20;;;;;;;0.57;0.50;;;11.90;99.90;11.90;100409.00;;;;4889132;28;120387;-68
2023/10/23 04:23:46;;;;;;;2.67;1.03;;;11.90;99.90;11.90;100414.00;;;;4894741;28;87913;-67
2023/10/23 04:26:12;;;;;;;2.10;0.87;;;11.90;99.90;11.90;100427.00;;;;4890965;28;107493;-67
2023/10/23 04:28:37;;;;;;;0.83;0.83;;;11.90;99.90;11.90;100424.00;;;;4891368;28;117919;-67
2023/10/23 04:31:03;;;;;;;1.90;0.80;;;11.90;99.90;11.90;100407.00;;;;4894331;28;91991;-67
2023/10/23 04:33:29;;;;;;;1.60;0.77;;;11.90;99.90;11.90;100419.00;;;;4895271;28;87984;-68
2023/10/23 04:35:57;;;;;;;1.57;0.97;;;12.00;99.90;11.90;100412.00;;;;4892063;28;107944;-67
2023/10/23 04:38:26;;;;;;;1.20;0.80;;;11.90;99.90;11.90;100424.00;;;;4891693;28;88345;-67
2023/10/23 04:40:55;;;;;;;1.83;0.97;;;11.90;99.90;11.90;100429.00;;;;4892542;28;89004;-67
2023/10/23 04:43:21;;;;;;;3.33;1.47;;;11.90;99.90;11.90;100428.00;;;;4891220;28;88786;-67
2023/10/23 04:45:52;;;;;;;1.73;0.80;;;11.90;99.90;11.90;100428.00;;;;4890507;28;102540;-68
2023/10/23 04:48:19;;;;;;;6.47;1.20;;;11.90;99.90;11.90;100423.00;;;;4892059;28;87793;-66
2023/10/23 04:50:44;;;;;;;0.70;0.70;;;11.90;99.90;11.90;100429.00;;;;4896211;28;89437;-66
2023/10/23 04:53:10;;;;;;;1.93;0.90;;;11.90;99.90;11.90;100434.00;;;;4892461;28;110076;-66
2023/10/23 04:55:38;;;;;;;2.00;1.07;;;11.90;99.90;11.80;100429.00;;;;4900767;28;88553;-67
2023/10/23 04:58:05;;;;;;;0.97;0.90;;;11.90;99.90;11.80;100425.00;;;;4876954;28;87946;-67
2023/10/23 05:00:38;;;;;;;0.63;0.60;;;11.90;99.90;11.70;100420.00;;;;4890281;28;107773;-66
2023/10/23 05:03:04;;;;;;;1.57;0.80;;;11.80;99.90;11.70;100427.00;;;;4894489;28;87860;-67
2023/10/23 05:05:31;;;;;;;4.30;1.20;;;11.70;99.90;11.70;100431.00;;;;4892786;28;87895;-66
2023/10/23 05:07:57;;;;;;;7.77;1.40;;;11.70;99.90;11.60;100433.00;;;;4891144;28;109057;-66
2023/10/23 05:10:22;;;;;;;2.27;1.20;;;11.70;99.90;11.60;100426.00;;;;4892690;28;88756;-66
2023/10/23 05:12:49;;;;;;;0.60;0.50;;;11.70;99.90;11.60;100431.00;;;;4891478;28;110846;-67
2023/10/23 05:15:16;;;;;;;0.67;0.67;;;11.60;99.90;11.60;100436.00;;;;4891012;28;88608;-68
2023/10/23 05:17:42;;;;;;;1.10;0.97;;;11.60;99.90;11.60;100435.00;;;;4894589;28;88962;-68
2023/10/23 05:20:08;;;;;;;4.33;0.63;;;11.60;99.90;11.60;100429.00;;;;4891403;28;116789;-68
2023/10/23 05:22:33;;;;;;;1.87;0.90;;;11.60;99.90;11.60;100433.00;;;;4891546;28;102832;-67
2023/10/23 05:24:59;;;;;;;1.00;0.73;;;11.60;99.90;11.60;100428.00;;;;4892725;28;97342;-66
2023/10/23 05:27:25;;;;;;;2.13;1.10;;;11.60;99.90;11.60;100440.00;;;;4887925;28;103704;-66
2023/10/23 05:29:51;;;;;;;1.83;1.03;;;11.60;99.90;11.60;100440.00;;;;4891503;28;116014;-67
2023/10/23 05:32:16;;;;;;;2.10;1.20;;;11.60;99.90;11.60;100444.00;;;;4890661;28;110294;-66
2023/10/23 05:34:45;;;;;;;1.33;0.97;;;11.60;99.90;11.60;100451.00;;;;4893302;28;108362;-66
2023/10/23 05:37:11;;;;;;;4.87;1.93;;;11.60;99.90;11.60;100448.00;;;;4893650;28;107932;-66
2023/10/23 05:39:37;;;;;;;1.70;1.00;;;11.60;99.90;11.60;100455.00;;;;4892730;28;111110;-67
2023/10/23 05:42:03;;;;;;;1.83;1.37;;;11.60;99.90;11.60;100458.00;;;;4890671;28;97932;-66
2023/10/23 05:44:29;;;;;;;2.83;1.50;;;11.60;99.90;11.60;100457.00;;;;4895103;28;89306;-67
2023/10/23 05:46:55;;;;;;;0.67;0.67;;;11.60;99.90;11.60;100459.00;;;;4891052;28;116999;-67
2023/10/23 05:49:21;;;;;;;2.17;1.10;;;11.70;99.90;11.60;100466.00;;;;4895020;28;87778;-66
2023/10/23 05:51:47;;;;;;;1.43;1.30;;;11.60;99.90;11.60;100461.00;;;;4889821;28;110459;-67
2023/10/23 05:54:13;;;;;;;1.80;1.40;;;11.70;99.90;11.60;100475.00;;;;4893693;28;88054;-67
2023/10/23 05:56:38;;;;;;;1.07;0.70;;;11.70;99.90;11.60;100469.00;;;;4889554;28;102098;-68
2023/10/23 05:59:04;;;;;;;0.70;0.60;;;11.70;99.90;11.60;100469.00;;;;4873692;28;117478;-67
2023/10/23 06:01:30;;;;;;;1.93;1.10;;;11.60;99.90;11.60;100469.00;;;;4888746;28;110124;-67
2023/10/23 06:03:56;;;;;;;2.90;1.10;;;11.70;99.90;11.60;100476.00;;;;4891500;28;87791;-67
2023/10/23 06:06:21;;;;;;;4.97;1.77;;;11.70;99.90;11.70;100482.00;;;;4892521;28;102242;-67
2023/10/23 06:08:47;;;;;;;3.03;1.30;;;11.70;99.90;11.70;100479.00;;;;4888064;28;116057;-67
2023/10/23 06:11:13;;;;;;;5.43;1.40;;;11.70;99.90;11.70;100485.00;;;;4888414;28;111614;-67
2023/10/23 06:13:39;;;;;;;1.20;1.10;;;11.70;99.90;11.70;100482.00;;;;4889285;28;89631;-67
2023/10/23 06:16:07;;;;;;;1.03;0.90;;;11.70;99.90;11.70;100485.00;;;;4888404;28;105785;-67
2023/10/23 06:18:37;;;;;;;1.97;1.33;;;11.70;99.90;11.70;100489.00;;;;4888949;28;88692;-67
2023/10/23 06:21:05;;;;;;;2.07;1.07;;;11.70;99.90;11.70;100499.00;;;;4888832;28;89252;-67
2023/10/23 06:23:37;;;;;;;0.63;0.63;;;11.70;99.90;11.70;100498.00;;;;4891715;28;88182;-68
2023/10/23 06:26:04;;;;;;;1.73;1.27;;;11.70;99.90;11.70;100492.00;;;;4886932;28;88530;-67
2023/10/23 06:28:31;;;;;;;2.63;1.13;;;11.80;99.90;11.80;100499.00;;;;4894068;28;88094;-67
2023/10/23 06:30:56;;;;;;;1.37;1.17;;;12.20;99.90;11.80;100501.00;;;;4894495;28;87992;-67
2023/10/23 06:33:23;;;;;;;1.17;0.90;;;11.80;99.90;11.80;100491.00;;;;4879182;28;107938;-67
2023/10/23 06:35:59;;;;;;;3.50;1.37;;;11.80;99.90;11.80;100501.00;;;;4890102;28;88558;-67
2023/10/23 06:38:24;;;;;;;1.53;0.97;;;11.90;99.90;11.90;100506.00;;;;4873297;28;87364;-67
2023/10/23 06:40:50;;;;;;;5.10;1.17;;;11.90;99.90;11.90;100498.00;;;;4896035;28;88415;-67
2023/10/23 06:43:16;;;;;;;2.23;1.13;;;11.90;99.90;12.00;100500.00;;;;4889478;28;108281;-67
2023/10/23 06:45:42;;;;;;;3.40;1.23;;;11.90;99.90;12.00;100498.00;;;;4892265;28;89350;-67
2023/10/23 06:48:07;;;;;;;1.23;0.80;;;12.00;99.90;12.00;100497.00;;;;4891567;28;89509;-67
2023/10/23 06:50:33;;;;;;;1.33;1.23;;;12.00;99.90;12.10;100499.00;;;;4890957;28;108987;-67
2023/10/23 06:52:59;;;;;;;1.43;0.70;;;12.00;99.90;12.10;100500.00;;;;4889212;28;108829;-67
2023/10/23 06:55:27;;;;;;;4.43;1.17;;;12.10;99.90;12.20;100508.00;;;;4890977;28;89097;-67
2023/10/23 06:57:54;;;;;;;0.73;0.73;;;12.20;99.90;12.20;100504.00;;;;4892213;28;88714;-67
2023/10/23 07:00:22;;;;;;;1.30;1.00;;;12.20;99.90;12.30;100501.00;;;;4889225;28;88145;-67
2023/10/23 07:02:48;;;;;;;1.70;1.10;;;12.30;99.90;12.30;100512.00;;;;4894826;28;109294;-67
2023/10/23 07:05:14;;;;;;;3.60;1.20;;;12.30;99.90;12.40;100520.00;;;;4876830;28;88214;-67
2023/10/23 07:07:40;;;;;;;2.30;1.03;;;12.40;99.90;12.40;100518.00;;;;4892147;28;115984;-67
2023/10/23 07:10:07;;;;;;;5.70;1.30;;;12.40;99.90;12.50;100514.00;;;;4890983;28;97613;-67
2023/10/23 07:12:32;;;;;;;1.43;0.90;;;12.50;99.90;12.50;100518.00;;;;4891965;28;99068;-67
2023/10/23 07:15:02;;;;;;;3.33;1.10;;;12.60;99.90;12.50;100519.00;;;;4896367;28;88391;-67
2023/10/23 07:17:31;;;;;;;0.93;0.80;;;12.50;99.90;12.50;100529.00;;;;4892314;28;87854;-67
2023/10/23 07:19:57;;;;;;;1.47;1.33;;;12.60;99.90;12.50;100524.00;;;;4896300;28;91926;-67
2023/10/23 07:22:22;;;;;;;1.97;1.23;;;12.50;99.90;12.50;100535.00;;;;4888399;28;87904;-67
2023/10/23 07:24:48;;;;;;;2.00;1.10;;;12.50;99.90;12.50;100530.00;;;;4893048;28;112787;-67
2023/10/23 07:27:16;;;;;;;0.60;0.57;;;12.50;99.90;12.50;100529.00;;;;4890421;28;117573;-67
2023/10/23 07:29:45;;;;;;;1.43;1.33;;;12.50;99.90;12.50;100526.00;;;;4890597;28;87801;-67
2023/10/23 07:32:11;;;;;;;1.13;0.90;;;12.50;99.90;12.50;100529.00;;;;4892268;28;108515;-67
2023/10/23 07:34:36;;;;;;;2.67;1.43;;;12.90;99.90;12.60;100519.00;;;;4894932;28;117869;-67
2023/10/23 07:37:03;;;;;;;1.40;0.90;;;12.60;99.90;12.70;100522.00;;;;4891682;28;118787;-67
2023/10/23 07:39:29;;;;;;;1.00;0.90;;;12.60;99.90;12.70;100518.00;;;;4893785;28;87573;-68
2023/10/23 07:41:55;;;;;;;1.63;0.80;;;12.70;99.90;12.80;100518.00;;;;4892407;28;87798;-68
2023/10/23 07:44:20;;;;;;;2.50;1.53;;;12.80;99.90;12.90;100515.00;;;;4893800;28;87740;-68
2023/10/23 07:46:46;;;;;;;6.63;2.40;;;12.80;99.90;13.10;100526.00;;;;4895059;28;89251;-67
2023/10/23 07:49:12;;;;;;;1.20;1.10;;;13.00;99.90;13.50;100525.00;;;;4892048;28;111027;-67
2023/10/23 07:51:38;;;;;;;1.87;1.40;;;13.30;99.90;13.90;100528.00;;;;4894313;28;87306;-67
2023/10/23 07:54:04;;;;;;;4.00;2.50;;;13.70;99.90;14.30;100529.00;;;;4896357;28;117176;-68
2023/10/23 07:56:30;;;;;;;3.40;1.93;;;14.10;99.90;14.70;100530.00;;;;4891728;28;88876;-67
2023/10/23 07:58:56;;;;;;;5.45;2.17;;;14.50;99.90;15.10;100542.00;;;;4890550;28;111244;-67
2023/10/23 08:01:22;;;;;;;1.45;1.30;;;14.90;99.90;15.40;100522.00;;;;4894639;28;88074;-67
2023/10/23 08:03:48;;;;;;;1.25;0.98;;;15.20;99.90;15.80;100531.00;;;;4895422;28;88549;-67
2023/10/23 08:06:15;;;;;;;3.90;0.98;;;15.60;99.90;16.10;100531.00;;;;4895207;28;118704;-67
2023/10/23 08:08:43;;;;;;;1.63;1.33;;;15.90;99.90;16.30;100534.00;;;;4891855;28;87729;-67
2023/10/23 08:11:10;;;;;;;2.55;1.30;;;16.20;99.90;16.60;100547.00;;;;4895034;28;87831;-67
2023/10/23 08:13:37;;;;;;;4.85;2.03;;;16.50;99.90;16.90;100538.00;;;;4898870;28;88353;-66
2023/10/23 08:16:04;;;;;;;5.63;1.30;;;16.70;99.90;17.10;100542.00;;;;4897149;28;106285;-67
2023/10/23 08:18:30;;;;;;;1.30;0.63;;;17.00;99.90;17.40;100552.00;;;;4896036;28;87843;-67
2023/10/23 08:20:55;;;;;;;4.85;0.90;;;17.20;99.90;17.60;100552.00;;;;4893033;28;109137;-67
2023/10/23 08:23:21;;;;;;;1.20;0.80;;;17.50;99.90;17.90;100553.00;;;;4896122;28;108834;-67
2023/10/23 08:25:47;;;;;;;0.70;0.60;;;17.70;99.90;18.20;100540.00;;;;4894724;28;89714;-67
2023/10/23 08:28:12;;;;;;;3.30;1.25;;;18.00;99.90;18.50;100535.00;;;;4893146;28;110401;-67
2023/10/23 08:30:38;;;;;;;1.23;0.55;;;18.30;99.90;18.70;100544.00;;;;4896912;28;108669;-67
2023/10/23 08:33:05;;;;;;;1.65;0.95;;;18.50;99.90;19.10;100551.00;;;;4894099;28;113685;-69
2023/10/23 08:35:32;;;;;;;2.00;0.60;;;18.90;99.90;19.40;100542.00;;;;4894218;28;88356;-69
2023/10/23 08:37:57;;;;;;;1.95;1.13;;;19.20;99.90;19.70;100544.00;;;;4889986;28;87796;-68
2023/10/23 08:40:23;;;;;;;0.52;0.52;;;19.50;99.90;19.90;100545.00;;;;4893756;28;109424;-67
2023/10/23 08:42:49;;;;;;;2.13;0.80;;;19.70;99.90;20.00;100546.00;;;;4892624;28;88332;-68
2023/10/23 08:45:16;;;;;;;2.35;1.02;;;19.90;99.90;20.10;100553.00;;;;4892689;28;117505;-69
2023/10/23 08:47:42;;;;;;;5.20;0.77;;;19.90;99.90;20.20;100553.00;;;;4902813;28;88758;-69
2023/10/23 08:50:08;;;;;;;0.63;0.52;;;20.10;99.90;20.50;100565.00;;;;4896003;28;92784;-69
2023/10/23 08:52:44;;;;;;;0.88;0.55;;;20.30;99.90;20.90;100558.00;;;;4891925;28;105499;-69
2023/10/23 08:55:15;;;;;;;1.30;0.60;;;20.60;99.90;21.20;100566.00;;;;4895244;28;88523;-68
2023/10/23 08:57:47;;;;;;;1.90;0.75;;;21.00;99.90;21.50;100567.00;;;;4894160;28;87976;-66
2023/10/23 09:00:13;;;;;;;0.77;0.43;;;21.20;99.90;21.60;100569.00;;;;4878891;28;87545;-67
2023/10/23 09:02:39;;;;;;;1.27;0.70;;;21.50;98.90;21.70;100566.00;;;;4889456;28;110374;-69
2023/10/23 09:05:05;;;;;;;0.90;0.55;;;21.60;98.60;21.70;100563.00;;;;4891686;28;117946;-68
2023/10/23 09:07:31;;;;;;;1.20;0.68;;;21.60;98.20;21.70;100553.00;;;;4891766;28;88526;-68
2023/10/23 09:10:03;;;;;;;3.55;0.82;;;21.60;97.80;21.70;100554.00;;;;4891648;28;88713;-68
2023/10/23 09:12:34;;;;;;;0.80;0.80;;;21.60;97.60;21.90;100562.00;;;;4892202;28;90199;-68
2023/10/23 09:15:17;;;;;;;1.00;0.73;;;21.70;97.40;22.20;100567.00;;;;4892386;28;89231;-68
2023/10/23 09:17:44;;;;;;;0.88;0.65;;;22.00;96.80;22.20;100575.00;;;;4894054;28;88092;-67
2023/10/23 09:20:16;;;;;;;2.25;1.00;;;22.00;96.20;22.10;100569.00;;;;4890050;28;87853;-67
2023/10/23 09:22:46;;;;;;;0.68;0.50;;;22.00;95.90;22.20;100562.00;;;;4893136;28;119286;-66
2023/10/23 09:25:14;;;;;;;2.95;0.63;;;22.00;95.70;22.10;100557.00;;;;4893187;28;88255;-66
2023/10/23 09:27:40;;;;;;;1.52;1.05;;;21.90;95.40;21.90;100562.00;;;;4892023;28;87721;-66
2023/10/23 09:30:08;;;;;;;1.77;0.68;;;21.80;95.20;21.60;100562.00;;;;4889839;28;87152;-66
2023/10/23 09:32:36;;;;;;;0.55;0.55;;;21.50;95.00;21.30;100563.00;;;;4890879;28;87709;-67
2023/10/23 09:35:04;;;;;;;1.90;0.85;;;21.30;95.50;21.00;100558.00;;;;4874691;28;88977;-67
2023/10/23 09:37:30;;;;;;;1.58;0.50;;;21.00;95.30;20.70;100560.00;;;;4891373;28;94911;-67
2023/10/23 09:40:08;;;;;;;1.88;0.63;;;20.70;95.30;20.40;100554.00;;;;4871960;28;107662;-66
2023/10/23 09:42:34;;;;;;;0.43;0.43;;;20.50;95.60;20.20;100552.00;;;;4893848;28;88464;-66
2023/10/23 09:45:03;;;;;;;2.60;0.75;;;20.20;95.80;19.90;100555.00;;;;4873426;28;108128;-66
2023/10/23 09:47:29;;;;;;;6.50;0.70;;;19.90;95.90;19.70;100559.00;;;;4892403;28;88195;-66
2023/10/23 09:49:55;;;;;;;3.70;0.80;;;19.60;96.20;19.50;100553.00;;;;4890886;28;88013;-67
2023/10/23 09:52:26;;;;;;;1.58;0.70;;;19.50;96.40;19.30;100557.00;;;;4890369;28;88183;-67
2023/10/23 09:55:00;;;;;;;2.28;0.77;;;19.30;96.60;19.20;100552.00;;;;4890161;28;90376;-67
2023/10/23 09:57:40;;;;;;;1.00;0.50;;;19.10;96.70;18.90;100553.00;;;;4889414;28;87844;-67
2023/10/23 10:00:14;;;;;;;0.90;0.70;;;19.00;96.70;18.80;100552.00;;;;4891007;28;87608;-67
2023/10/23 10:03:02;;;;;;;0.88;0.63;;;18.80;96.90;18.60;100549.00;;;;4891231;28;89726;-67
2023/10/23 10:05:50;;;;;;;1.23;0.77;;;18.60;97.10;18.40;100544.00;;;;4876744;28;91063;-66
2023/10/23 10:08:18;;;;;;;1.13;0.52;;;18.40;97.10;18.20;100544.00;;;;4870730;28;89403;-67
2023/10/23 10:10:44;;;;;;;1.52;1.00;;;18.30;97.10;18.10;100548.00;;;;4889448;28;88119;-66
2023/10/23 10:13:13;;;;;;;2.05;0.80;;;18.10;97.40;18.10;100541.00;;;;4895523;28;116807;-67
2023/10/23 10:15:39;;;;;;;0.95;0.95;;;18.00;97.60;18.10;100543.00;;;;4894060;28;88414;-67
2023/10/23 10:18:05;;;;;;;1.77;0.80;;;18.00;97.80;18.10;100542.00;;;;4890062;28;87828;-66
2023/10/23 10:20:31;;;;;;;1.45;0.77;;;18.00;97.90;18.20;100533.00;;;;4873340;28;96520;-67
2023/10/23 10:23:11;;;;;;;0.43;0.30;;;18.00;98.00;18.20;100528.00;;;;4893940;28;91384;-67
2023/10/23 10:25:39;;;;;;;4.47;0.47;;;18.10;98.10;18.20;100543.00;;;;4892255;28;88252;-65
2023/10/23 10:28:07;;;;;;;1.73;0.90;;;18.10;98.10;18.20;100541.00;;;;4872183;28;89099;-67
2023/10/23 10:30:46;;;;;;;0.50;0.45;;;18.10;98.10;18.20;100536.00;;;;4892677;28;89933;-67
2023/10/23 10:33:23;;;;;;;0.50;0.50;;;18.10;98.20;18.30;100532.00;;;;4889411;28;88140;-66
2023/10/23 10:36:05;;;;;;;2.38;0.88;;;18.10;98.30;18.50;100531.00;;;;4895497;28;89027;-66
2023/10/23 10:38:33;;;;;;;5.07;2.00;;;18.20;98.60;19.10;100523.00;;;;4896796;28;100577;-67
2023/10/23 10:41:16;;;;;;;0.55;0.55;;;18.70;98.90;19.80;100530.00;;;;4892752;28;87801;-68
2023/10/23 10:43:49;;;;;;;3.47;0.93;;;19.30;98.70;20.60;100523.00;;;;4877794;28;87812;-69
2023/10/23 10:46:23;;;;;;;1.33;0.60;;;20.00;98.20;21.30;100525.00;;;;4896185;28;104933;-70